sensor_id;sensor_type;location;lat;lon;timestamp;temperature;humidity
58363;DHT22;54977;51.510;7.522;2022-09-29T01:45:23;8.30;71.30
58363;DHT22;54977;51.510;7.522;2022-09-29T01:50:31;8.10;73.20
58363;DHT22;54977;51.510;7.522;2022-09-29T01:55:48;8.10;72.60
58363;DHT22;54977;51.510;7.522;2022-09-29T02:00:55;8.00;72.50
58363;DHT22;54977;51.510;7.522;2022-09-29T02:06:01;8.00;72.50
58363;DHT22;54977;51.510;7.522;2022-09-29T04:17:40;8.00;72.20
58363;DHT22;54977;51.510;7.522;2022-09-29T04:58:04;7.30;72.80
58363;DHT22;54977;51.510;7.522;2022-09-29T05:03:07;7.30;73.50
58363;DHT22;54977;51.510;7.522;2022-09-29T05:08:10;7.30;73.40
58363;DHT22;54977;51.510;7.522;2022-09-29T05:18:13;7.30;73.50
58363;DHT22;54977;51.510;7.522;2022-09-29T05:23:17;7.30;73.20
58363;DHT22;54977;51.510;7.522;2022-09-29T05:28:18;7.30;73.50
58363;DHT22;54977;51.510;7.522;2022-09-29T05:33:20;7.30;73.70
58363;DHT22;54977;51.510;7.522;2022-09-29T05:38:24;7.30;73.90
58363;DHT22;54977;51.510;7.522;2022-09-29T05:43:25;7.30;73.90
58363;DHT22;54977;51.510;7.522;2022-09-29T05:48:27;7.40;73.90
58363;DHT22;54977;51.510;7.522;2022-09-29T05:53:31;7.40;73.80
58363;DHT22;54977;51.510;7.522;2022-09-29T05:58:33;7.50;73.10
58363;DHT22;54977;51.510;7.522;2022-09-29T06:03:36;7.50;73.50
58363;DHT22;54977;51.510;7.522;2022-09-29T06:08:39;7.50;73.60
58363;DHT22;54977;51.510;7.522;2022-09-29T06:13:42;7.60;73.70
58363;DHT22;54977;51.510;7.522;2022-09-29T06:18:45;7.70;73.50
58363;DHT22;54977;51.510;7.522;2022-09-29T17:45:32;7.70;73.40
58363;DHT22;54977;51.510;7.522;2022-09-29T17:50:42;11.00;64.00
58363;DHT22;54977;51.510;7.522;2022-09-29T18:00:51;10.80;63.70
58363;DHT22;54977;51.510;7.522;2022-09-29T18:05:54;10.40;66.00
58363;DHT22;54977;51.510;7.522;2022-09-29T18:11:00;10.50;65.10
58363;DHT22;54977;51.510;7.522;2022-09-29T18:16:02;10.40;65.40
58363;DHT22;54977;51.510;7.522;2022-09-29T18:21:04;10.40;65.10
58363;DHT22;54977;51.510;7.522;2022-09-29T18:26:09;10.30;64.70
58363;DHT22;54977;51.510;7.522;2022-09-29T18:31:19;10.30;65.00
58363;DHT22;54977;51.510;7.522;2022-09-29T18:36:22;10.10;65.60
58363;DHT22;54977;51.510;7.522;2022-09-29T18:41:25;9.90;66.80
58363;DHT22;54977;51.510;7.522;2022-09-29T21:07:59;9.90;66.80
58363;DHT22;54977;51.510;7.522;2022-09-29T21:43:16;8.20;73.40
58363;DHT22;54977;51.510;7.522;2022-09-29T22:03:30;8.40;71.20
58363;DHT22;54977;51.510;7.522;2022-09-29T22:33:53;8.40;71.70
58363;DHT22;54977;51.510;7.522;2022-09-29T22:38:56;8.50;70.30
58363;DHT22;54977;51.510;7.522;2022-09-29T22:43:58;8.50;70.10
58363;DHT22;54977;51.510;7.522;2022-09-29T22:49:02;8.40;70.00
58363;DHT22;54977;51.510;7.522;2022-09-29T22:54:04;8.30;70.60
58363;DHT22;54977;51.510;7.522;2022-09-29T22:59:05;8.30;69.70
58363;DHT22;54977;51.510;7.522;2022-09-29T23:04:09;8.30;70.10
58363;DHT22;54977;51.510;7.522;2022-09-29T23:09:11;8.20;70.20
58363;DHT22;54977;51.510;7.522;2022-09-29T23:14:12;8.20;71.00
58363;DHT22;54977;51.510;7.522;2022-09-29T23:19:16;8.10;70.70
58363;DHT22;54977;51.510;7.522;2022-09-29T23:24:19;8.10;70.70
58363;DHT22;54977;51.510;7.522;2022-09-29T23:29:23;8.10;71.10
58363;DHT22;54977;51.510;7.522;2022-09-29T23:34:26;8.00;71.10
58363;DHT22;54977;51.510;7.522;2022-09-29T23:49:36;8.00;71.00
58363;DHT22;54977;51.510;7.522;2022-09-29T23:54:38;8.00;70.60
58363;DHT22;54977;51.510;7.522;2022-09-29T23:59:40;7.90;71.10
